createdAt,value
2018-07-16T00:00:08.259Z,4.17
2018-07-16T00:02:35.878Z,3.72
2018-07-16T00:05:03.513Z,4.60
2018-07-16T00:07:31.331Z,4.33
2018-07-16T00:09:58.928Z,3.90
2018-07-16T00:12:26.614Z,3.87
2018-07-16T00:14:54.358Z,3.30
2018-07-16T00:17:21.992Z,3.62
2018-07-16T00:19:49.668Z,3.35
2018-07-16T00:22:17.722Z,3.52
2018-07-16T00:24:45.395Z,4.08
2018-07-16T00:27:13.258Z,3.70
2018-07-16T00:29:40.861Z,3.42
2018-07-16T00:32:08.677Z,3.42
2018-07-16T00:34:37.136Z,3.17
2018-07-16T00:37:04.840Z,3.20
2018-07-16T00:39:32.693Z,3.22
2018-07-16T00:42:00.366Z,2.90
2018-07-16T00:44:28.112Z,2.60
2018-07-16T00:46:55.653Z,2.67
2018-07-16T00:49:23.289Z,2.77
2018-07-16T00:51:50.928Z,2.80
2018-07-16T00:54:18.654Z,2.58
2018-07-16T00:56:46.817Z,3.25
2018-07-16T00:59:15.325Z,4.03
2018-07-16T01:01:43.034Z,3.58
2018-07-16T01:04:10.698Z,3.20
2018-07-16T01:06:38.284Z,2.70
2018-07-16T01:09:05.936Z,2.83
2018-07-16T01:11:33.616Z,2.97
2018-07-16T01:14:01.316Z,2.95
2018-07-16T01:16:29.028Z,3.98
2018-07-16T01:18:56.741Z,4.20
2018-07-16T01:21:24.431Z,3.85
2018-07-16T01:23:52.041Z,3.77
2018-07-16T01:26:26.428Z,5.00
2018-07-16T01:31:28.676Z,4.45
2018-07-16T01:33:56.318Z,5.05
2018-07-16T01:36:23.972Z,5.05
2018-07-16T01:38:51.965Z,4.35
2018-07-16T01:41:19.812Z,3.80
2018-07-16T01:43:47.491Z,3.15
2018-07-16T01:46:15.245Z,3.27
2018-07-16T01:48:43.841Z,3.60
2018-07-16T01:51:11.491Z,3.27
2018-07-16T01:53:39.085Z,3.83
2018-07-16T01:56:06.738Z,4.25
2018-07-16T01:58:34.408Z,4.42
2018-07-16T02:01:03.643Z,3.80
2018-07-16T02:03:32.508Z,4.10
2018-07-16T02:06:00.277Z,3.52
2018-07-16T02:08:28.237Z,3.47
2018-07-16T02:10:56.138Z,3.50
2018-07-16T02:13:24.000Z,3.33
2018-07-16T02:15:51.644Z,3.90
2018-07-16T02:18:19.484Z,4.20
2018-07-16T02:20:47.664Z,4.05
2018-07-16T02:23:15.300Z,3.52
2018-07-16T02:25:43.241Z,3.80
2018-07-16T02:28:11.453Z,3.77
2018-07-16T02:30:40.441Z,3.77
2018-07-16T02:33:09.110Z,3.70
2018-07-16T02:35:36.808Z,4.17
2018-07-16T02:38:04.416Z,3.72
2018-07-16T02:40:32.134Z,3.80
2018-07-16T02:42:59.744Z,3.70
2018-07-16T02:45:27.836Z,3.35
2018-07-16T02:47:56.804Z,3.27
2018-07-16T02:50:24.401Z,2.83
2018-07-16T02:52:51.945Z,3.35
2018-07-16T02:55:19.848Z,3.20
2018-07-16T02:57:47.732Z,3.00
2018-07-16T03:00:16.284Z,3.00
2018-07-16T03:02:43.912Z,2.75
2018-07-16T03:05:19.816Z,3.00
2018-07-16T03:07:48.548Z,2.60
2018-07-16T03:10:16.185Z,3.12
2018-07-16T03:12:44.149Z,3.15
2018-07-16T03:15:12.227Z,3.12
2018-07-16T03:17:39.799Z,3.30
2018-07-16T03:20:07.867Z,3.50
2018-07-16T03:22:35.808Z,4.67
2018-07-16T03:25:03.760Z,9.73
2018-07-16T03:27:31.267Z,10.03
2018-07-16T03:29:58.894Z,9.88
2018-07-16T03:32:26.527Z,9.23
2018-07-16T03:34:54.191Z,8.35
2018-07-16T03:37:21.791Z,7.47
2018-07-16T03:39:49.656Z,6.00
2018-07-16T03:42:17.310Z,5.33
2018-07-16T03:44:44.921Z,4.87
2018-07-16T03:47:12.528Z,4.40
2018-07-16T03:49:41.209Z,4.28
2018-07-16T03:52:08.944Z,3.98
2018-07-16T03:54:36.555Z,4.15
2018-07-16T03:57:04.404Z,3.65
2018-07-16T03:59:32.006Z,4.03
2018-07-16T04:01:59.645Z,3.50
2018-07-16T04:04:27.269Z,3.53
2018-07-16T04:06:54.942Z,4.33
2018-07-16T04:09:22.507Z,3.87
2018-07-16T04:11:50.166Z,4.30
2018-07-16T04:14:18.745Z,4.15
2018-07-16T04:16:46.675Z,4.00
2018-07-16T04:19:14.280Z,4.20
2018-07-16T04:21:41.880Z,4.30
2018-07-16T04:24:10.045Z,4.60
2018-07-16T04:26:38.118Z,4.23
2018-07-16T04:29:06.456Z,3.80
2018-07-16T04:31:34.123Z,3.50
2018-07-16T04:34:01.675Z,3.37
2018-07-16T04:36:29.476Z,2.60
2018-07-16T04:38:57.443Z,2.98
2018-07-16T04:41:25.289Z,2.70
2018-07-16T04:43:53.210Z,3.80
2018-07-16T04:46:21.753Z,6.72
2018-07-16T04:48:49.832Z,7.37
2018-07-16T04:51:17.993Z,7.40
2018-07-16T04:53:45.860Z,6.20
2018-07-16T04:56:13.588Z,5.40
2018-07-16T04:58:41.472Z,4.87
2018-07-16T05:01:09.472Z,4.80
2018-07-16T05:03:37.334Z,5.47
2018-07-16T05:06:04.936Z,6.85
2018-07-16T05:08:32.862Z,5.65
2018-07-16T05:11:00.448Z,4.83
2018-07-16T05:13:28.155Z,4.28
2018-07-16T05:15:55.713Z,4.30
2018-07-16T05:18:23.630Z,3.77
2018-07-16T05:20:50.915Z,5.35
2018-07-16T05:23:18.597Z,8.00
2018-07-16T05:25:46.677Z,7.12
2018-07-16T05:28:14.245Z,7.35
2018-07-16T05:30:41.825Z,5.70
2018-07-16T05:33:10.160Z,5.33
2018-07-16T05:35:37.966Z,5.03
2018-07-16T05:38:05.591Z,5.30
2018-07-16T05:40:33.167Z,5.85
2018-07-16T05:43:00.760Z,4.83
2018-07-16T05:45:28.364Z,4.22
2018-07-16T05:47:56.043Z,3.80
2018-07-16T05:50:23.690Z,6.22
2018-07-16T05:52:51.326Z,5.00
2018-07-16T05:55:18.941Z,6.35
2018-07-16T05:57:46.621Z,6.83
2018-07-16T06:00:14.217Z,5.55
2018-07-16T06:02:41.835Z,5.00
2018-07-16T06:05:09.493Z,5.30
2018-07-16T06:07:37.073Z,4.70
2018-07-16T06:10:04.714Z,8.25
2018-07-16T06:12:32.340Z,9.05
2018-07-16T06:14:59.944Z,8.73
2018-07-16T06:17:27.572Z,6.45
2018-07-16T06:19:55.212Z,6.00
2018-07-16T06:22:22.866Z,6.33
2018-07-16T06:24:50.540Z,7.33
2018-07-16T06:27:18.151Z,6.75
2018-07-16T06:29:45.772Z,6.45
2018-07-16T06:32:13.373Z,6.70
2018-07-16T06:34:41.012Z,7.47
2018-07-16T06:37:08.944Z,6.45
2018-07-16T06:39:36.786Z,6.28
2018-07-16T06:42:04.576Z,6.12
2018-07-16T06:44:32.365Z,5.87
2018-07-16T06:46:59.974Z,5.17
2018-07-16T06:49:28.978Z,5.00
2018-07-16T06:51:56.598Z,5.90
2018-07-16T06:54:24.238Z,6.03
2018-07-16T06:56:51.982Z,5.00
2018-07-16T06:59:19.634Z,4.12
2018-07-16T07:01:47.247Z,4.30
2018-07-16T07:04:14.923Z,3.87
2018-07-16T07:06:42.518Z,4.80
2018-07-16T07:09:10.198Z,4.42
2018-07-16T07:11:37.781Z,4.55
2018-07-16T07:14:05.582Z,4.53
2018-07-16T07:16:33.492Z,3.60
2018-07-16T07:19:01.461Z,3.80
2018-07-16T07:21:29.137Z,3.75
2018-07-16T07:23:56.958Z,3.40
2018-07-16T07:26:24.856Z,4.25
2018-07-16T07:28:52.493Z,5.65
2018-07-16T07:31:20.357Z,6.10
2018-07-16T07:33:48.006Z,5.28
2018-07-16T07:36:15.921Z,5.22
2018-07-16T07:38:43.509Z,6.80
2018-07-16T07:41:11.282Z,6.90
2018-07-16T07:43:38.889Z,6.85
2018-07-16T07:46:06.523Z,5.22
2018-07-16T07:48:34.237Z,6.28
2018-07-16T07:51:02.573Z,5.85
2018-07-16T07:53:30.189Z,6.10
2018-07-16T07:55:57.786Z,5.40
2018-07-16T07:58:25.775Z,4.30
2018-07-16T08:00:53.396Z,5.28
2018-07-16T08:03:21.000Z,6.15
2018-07-16T08:05:54.377Z,4.95
2018-07-16T08:08:22.028Z,4.17
2018-07-16T08:10:49.649Z,4.53
2018-07-16T08:13:17.349Z,4.67
2018-07-16T08:15:44.969Z,4.17
2018-07-16T08:18:12.845Z,3.72
2018-07-16T08:20:40.445Z,3.37
2018-07-16T08:23:08.118Z,3.62
2018-07-16T08:25:35.785Z,4.62
2018-07-16T08:28:03.402Z,4.97
2018-07-16T08:30:31.000Z,4.00
2018-07-16T08:32:58.621Z,4.00
2018-07-16T08:35:26.233Z,3.98
2018-07-16T08:37:53.849Z,4.35
2018-07-16T08:40:21.439Z,4.22
2018-07-16T08:42:49.050Z,3.83
2018-07-16T08:45:16.864Z,3.42
2018-07-16T08:47:44.456Z,3.62
2018-07-16T08:50:12.104Z,5.53
2018-07-16T08:52:39.709Z,6.10
2018-07-16T08:55:07.251Z,4.28
2018-07-16T08:57:34.874Z,4.95
2018-07-16T09:00:02.472Z,4.70
2018-07-16T09:02:30.074Z,4.03
2018-07-16T09:04:57.928Z,5.55
2018-07-16T09:07:25.563Z,4.72
2018-07-16T09:09:53.174Z,5.30
2018-07-16T09:12:20.781Z,4.95
2018-07-16T09:14:48.413Z,4.35
2018-07-16T09:17:16.051Z,4.05
2018-07-16T09:19:43.676Z,3.85
2018-07-16T09:22:11.729Z,4.78
2018-07-16T09:24:39.362Z,4.40
2018-07-16T09:27:07.082Z,3.95
2018-07-16T09:29:34.873Z,4.12
2018-07-16T09:32:02.697Z,4.70
2018-07-16T09:34:30.297Z,4.67
2018-07-16T09:36:57.917Z,3.72
2018-07-16T09:39:25.515Z,5.00
2018-07-16T09:41:53.134Z,4.17
2018-07-16T09:44:20.812Z,3.62
2018-07-16T09:46:48.307Z,3.10
2018-07-16T09:49:15.937Z,3.10
2018-07-16T09:51:43.521Z,2.95
2018-07-16T09:54:11.150Z,2.72
2018-07-16T09:56:38.787Z,3.30
2018-07-16T09:59:06.381Z,3.40
2018-07-16T10:01:39.621Z,3.22
2018-07-16T10:04:07.187Z,4.60
2018-07-16T10:06:34.814Z,3.62
2018-07-16T10:09:02.461Z,4.55
2018-07-16T10:11:30.056Z,4.75
2018-07-16T10:13:57.669Z,4.67
2018-07-16T10:16:25.284Z,5.47
2018-07-16T10:18:52.922Z,4.45
2018-07-16T10:21:20.505Z,4.67
2018-07-16T10:23:48.073Z,4.80
2018-07-16T10:26:15.678Z,3.75
2018-07-16T10:28:43.292Z,4.42
2018-07-16T10:31:10.897Z,3.85
2018-07-16T10:33:38.488Z,5.08
2018-07-16T10:36:06.084Z,3.52
2018-07-16T10:38:33.730Z,4.33
2018-07-16T10:41:01.337Z,4.25
2018-07-16T10:43:29.053Z,3.67
2018-07-16T10:45:56.632Z,3.67
2018-07-16T10:48:24.323Z,4.70
2018-07-16T10:50:52.042Z,4.80
2018-07-16T10:53:19.661Z,4.55
2018-07-16T10:55:47.265Z,4.00
2018-07-16T10:58:14.917Z,3.58
2018-07-16T11:00:42.493Z,4.10
2018-07-16T11:03:10.283Z,3.72
2018-07-16T11:05:37.793Z,3.70
2018-07-16T11:08:05.410Z,3.05
2018-07-16T11:10:32.989Z,3.33
2018-07-16T11:13:00.598Z,3.60
2018-07-16T11:15:28.171Z,4.70
2018-07-16T11:17:55.799Z,3.90
2018-07-16T11:20:23.372Z,5.58
2018-07-16T11:22:51.077Z,5.25
2018-07-16T11:25:18.698Z,4.45
2018-07-16T11:27:46.572Z,4.15
2018-07-16T11:30:14.198Z,4.30
2018-07-16T11:32:41.699Z,4.85
2018-07-16T11:35:09.308Z,5.13
2018-07-16T11:37:36.899Z,3.90
2018-07-16T11:40:04.517Z,4.30
2018-07-16T11:42:32.077Z,5.15
2018-07-16T11:44:59.709Z,4.87
2018-07-16T11:47:27.677Z,4.60
2018-07-16T11:49:55.298Z,4.15
2018-07-16T11:52:22.968Z,3.70
2018-07-16T11:54:50.573Z,2.92
2018-07-16T11:57:18.211Z,4.65
2018-07-16T11:59:45.817Z,4.22
2018-07-16T12:02:13.605Z,3.90
2018-07-16T12:04:41.234Z,4.05
2018-07-16T12:07:08.971Z,3.62
2018-07-16T12:09:36.589Z,3.72
2018-07-16T12:12:04.313Z,3.77
2018-07-16T12:14:31.912Z,3.42
2018-07-16T12:16:59.540Z,3.08
2018-07-16T12:19:27.124Z,3.27
2018-07-16T12:21:54.912Z,3.80
2018-07-16T12:24:22.504Z,2.52
2018-07-16T12:26:50.101Z,3.00
2018-07-16T12:29:17.745Z,3.20
2018-07-16T12:31:45.369Z,2.70
2018-07-16T12:34:13.066Z,2.70
2018-07-16T12:36:40.649Z,3.58
2018-07-16T12:39:08.352Z,3.33
2018-07-16T12:41:36.318Z,3.72
2018-07-16T12:44:03.972Z,4.22
2018-07-16T12:46:31.589Z,4.22
2018-07-16T12:48:59.173Z,4.10
2018-07-16T12:51:26.790Z,3.17
2018-07-16T12:53:54.403Z,3.25
2018-07-16T12:56:21.998Z,3.75
2018-07-16T12:58:49.892Z,3.92
2018-07-16T13:01:17.722Z,2.95
2018-07-16T13:03:45.358Z,3.15
2018-07-16T13:06:13.003Z,3.65
2018-07-16T13:08:40.515Z,2.80
2018-07-16T13:11:08.179Z,2.85
2018-07-16T13:13:35.845Z,3.10
2018-07-16T13:16:03.469Z,2.70
2018-07-16T13:18:31.092Z,2.90
2018-07-16T13:20:58.695Z,2.62
2018-07-16T13:23:26.345Z,2.98
2018-07-16T13:25:53.976Z,3.35
2018-07-16T13:28:21.561Z,2.70
2018-07-16T13:30:49.392Z,3.33
2018-07-16T13:33:16.985Z,3.00
2018-07-16T13:35:44.613Z,3.20
2018-07-16T13:38:12.205Z,2.70
2018-07-16T13:40:39.769Z,3.12
2018-07-16T13:43:07.569Z,3.70
2018-07-16T13:45:35.245Z,3.62
2018-07-16T13:48:02.842Z,2.90
2018-07-16T13:50:30.502Z,3.80
2018-07-16T13:52:58.099Z,3.30
2018-07-16T13:55:25.749Z,3.30
2018-07-16T13:57:53.505Z,3.47
2018-07-16T14:00:21.165Z,3.22
2018-07-16T14:02:48.805Z,3.98
2018-07-16T14:05:16.401Z,3.90
2018-07-16T14:07:43.964Z,3.33
2018-07-16T14:10:11.750Z,3.33
2018-07-16T14:12:39.212Z,3.70
2018-07-16T14:15:06.781Z,3.87
2018-07-16T14:17:34.433Z,3.33
2018-07-16T14:20:01.933Z,3.45
2018-07-16T14:22:29.476Z,3.27
2018-07-16T14:24:57.140Z,3.12
2018-07-16T14:27:24.857Z,4.15
2018-07-16T14:29:52.377Z,4.30
2018-07-16T14:32:20.181Z,4.40
2018-07-16T14:34:48.711Z,3.98
2018-07-16T14:37:16.565Z,4.40
2018-07-16T14:39:44.678Z,3.62
2018-07-16T14:42:12.260Z,4.00
2018-07-16T14:44:40.280Z,3.22
2018-07-16T14:47:07.956Z,3.65
2018-07-16T14:49:35.958Z,3.58
2018-07-16T14:52:03.776Z,4.67
2018-07-16T14:54:31.481Z,4.35
2018-07-16T14:57:00.002Z,4.80
2018-07-16T14:59:27.733Z,4.45
2018-07-16T15:01:55.733Z,4.25
2018-07-16T15:04:23.256Z,4.35
2018-07-16T15:06:51.213Z,4.70
2018-07-16T15:09:19.900Z,4.12
2018-07-16T15:11:47.778Z,4.50
2018-07-16T15:14:15.674Z,4.45
2018-07-16T15:16:43.269Z,4.50
2018-07-16T15:19:11.911Z,5.17
2018-07-16T15:21:39.874Z,4.20
2018-07-16T15:24:07.401Z,4.28
2018-07-16T15:26:35.252Z,4.65
2018-07-16T15:29:02.968Z,4.50
2018-07-16T15:31:30.554Z,4.05
2018-07-16T15:33:58.165Z,3.83
2018-07-16T15:36:25.730Z,4.03
2018-07-16T15:38:53.583Z,4.17
2018-07-16T15:41:21.473Z,3.87
2018-07-16T15:43:49.081Z,3.70
2018-07-16T15:46:16.809Z,3.17
2018-07-16T15:48:44.634Z,3.40
2018-07-16T15:51:12.265Z,3.37
2018-07-16T15:53:40.019Z,4.05
2018-07-16T15:56:08.104Z,3.70
2018-07-16T15:58:35.690Z,4.03
2018-07-16T16:01:03.263Z,3.83
2018-07-16T16:03:31.017Z,4.33
2018-07-16T16:05:58.673Z,4.15
2018-07-16T16:08:26.362Z,3.65
2018-07-16T16:10:55.097Z,3.83
2018-07-16T16:13:22.837Z,3.70
2018-07-16T16:18:24.992Z,3.60
2018-07-16T16:20:52.821Z,3.60
2018-07-16T16:23:20.436Z,4.25
2018-07-16T16:25:48.091Z,4.00
2018-07-16T16:28:15.771Z,4.20
2018-07-16T16:30:43.366Z,3.70
2018-07-16T16:33:10.988Z,4.55
2018-07-16T16:35:38.602Z,4.47
2018-07-16T16:38:07.231Z,3.70
2018-07-16T16:40:35.147Z,3.95
2018-07-16T16:43:02.840Z,4.40
2018-07-16T16:45:30.348Z,4.20
2018-07-16T16:47:57.887Z,3.85
2018-07-16T16:50:25.412Z,3.35
2018-07-16T16:52:52.909Z,3.60
2018-07-16T16:55:20.601Z,4.12
2018-07-16T16:57:48.167Z,3.50
2018-07-16T17:00:16.154Z,3.77
2018-07-16T17:02:43.680Z,4.22
2018-07-16T17:05:11.461Z,3.65
2018-07-16T17:07:39.292Z,3.77
2018-07-16T17:10:07.205Z,3.92
2018-07-16T17:12:35.063Z,3.47
2018-07-16T17:15:02.684Z,3.60
2018-07-16T17:17:30.284Z,3.62
2018-07-16T17:19:57.949Z,3.62
2018-07-16T17:22:25.773Z,4.12
2018-07-16T17:24:53.396Z,4.17
2018-07-16T17:27:21.149Z,4.40
2018-07-16T17:29:48.985Z,3.55
2018-07-16T17:32:17.557Z,4.62
2018-07-16T17:34:45.109Z,4.30
2018-07-16T17:37:13.377Z,4.25
2018-07-16T17:39:41.021Z,4.17
2018-07-16T17:42:09.085Z,3.85
2018-07-16T17:44:36.866Z,3.95
2018-07-16T17:47:04.503Z,3.55
2018-07-16T17:49:32.437Z,4.80
2018-07-16T17:52:00.070Z,4.10
2018-07-16T17:54:27.749Z,3.80
2018-07-16T17:56:55.285Z,3.70
2018-07-16T17:59:22.995Z,3.00
2018-07-16T18:01:50.564Z,3.45
2018-07-16T18:04:18.385Z,4.30
2018-07-16T18:06:45.984Z,4.50
2018-07-16T18:09:13.543Z,3.62
2018-07-16T18:11:43.393Z,3.72
2018-07-16T18:14:11.585Z,3.75
2018-07-16T18:16:39.238Z,3.70
2018-07-16T18:19:06.800Z,3.40
2018-07-16T18:21:34.347Z,3.72
2018-07-16T18:24:02.114Z,3.45
2018-07-16T18:26:29.770Z,4.17
2018-07-16T18:28:57.566Z,4.97
2018-07-16T18:31:25.242Z,4.83
2018-07-16T18:33:53.045Z,4.20
2018-07-16T18:36:20.768Z,5.75
2018-07-16T18:38:48.260Z,4.70
2018-07-16T18:41:16.704Z,3.97
2018-07-16T18:43:51.012Z,4.15
2018-07-16T18:46:18.965Z,3.77
2018-07-16T18:48:46.797Z,3.65
2018-07-16T18:51:14.416Z,3.67
2018-07-16T18:53:42.629Z,3.80
2018-07-16T18:56:10.581Z,4.10
2018-07-16T18:58:38.145Z,4.10
2018-07-16T19:01:06.116Z,4.90
2018-07-16T19:03:34.076Z,4.90
2018-07-16T19:06:01.904Z,3.83
2018-07-16T19:08:29.462Z,3.60
2018-07-16T19:10:57.313Z,3.22
2018-07-16T19:13:24.914Z,2.72
2018-07-16T19:15:52.478Z,3.20
2018-07-16T19:18:20.300Z,3.00
2018-07-16T19:20:48.086Z,3.20
2018-07-16T19:23:15.917Z,2.80
2018-07-16T19:25:43.510Z,3.20
2018-07-16T19:28:11.375Z,3.35
2018-07-16T19:30:39.217Z,2.98
2018-07-16T19:33:07.162Z,2.98
2018-07-16T19:35:34.732Z,3.10
2018-07-16T19:38:02.349Z,3.50
2018-07-16T19:40:30.325Z,3.40
2018-07-16T19:42:57.911Z,3.60
2018-07-16T19:45:25.590Z,3.40
2018-07-16T19:47:53.680Z,3.05
2018-07-16T19:50:21.332Z,2.77
2018-07-16T19:52:48.828Z,3.15
2018-07-16T19:55:16.763Z,3.05
2018-07-16T19:57:44.384Z,3.12
2018-07-16T20:00:11.956Z,3.22
2018-07-16T20:02:39.701Z,3.37
2018-07-16T20:05:07.761Z,3.80
2018-07-16T20:07:35.393Z,3.87
2018-07-16T20:10:04.107Z,4.15
2018-07-16T20:12:34.981Z,3.55
2018-07-16T20:15:03.119Z,3.80
2018-07-16T20:17:31.283Z,3.52
2018-07-16T20:19:59.158Z,3.52
2018-07-16T20:22:29.918Z,3.30
2018-07-16T20:24:57.788Z,3.95
2018-07-16T20:27:27.860Z,4.12
2018-07-16T20:29:55.576Z,4.35
2018-07-16T20:32:23.270Z,4.33
2018-07-16T20:34:51.028Z,4.15
2018-07-16T20:37:19.190Z,4.55
2018-07-16T20:39:47.069Z,4.30
2018-07-16T20:42:14.960Z,4.60
2018-07-16T20:44:42.573Z,4.08
2018-07-16T20:47:10.378Z,3.50
2018-07-16T20:49:38.837Z,3.75
2018-07-16T20:52:06.531Z,3.90
2018-07-16T20:54:34.365Z,4.08
2018-07-16T20:57:02.137Z,4.10
2018-07-16T20:59:29.755Z,3.92
2018-07-16T21:01:57.358Z,3.90
2018-07-16T21:04:24.994Z,3.77
2018-07-16T21:06:52.613Z,3.35
2018-07-16T21:09:20.199Z,3.55
2018-07-16T21:11:47.738Z,3.42
2018-07-16T21:14:15.447Z,3.40
2018-07-16T21:16:43.122Z,3.62
2018-07-16T21:19:10.972Z,3.40
2018-07-16T21:21:38.802Z,3.80
2018-07-16T21:24:06.643Z,3.60
2018-07-16T21:26:34.498Z,4.47
2018-07-16T21:29:02.132Z,3.65
2018-07-16T21:31:30.008Z,3.90
2018-07-16T21:33:57.703Z,3.98
2018-07-16T21:36:25.564Z,4.55
2018-07-16T21:38:53.241Z,4.75
2018-07-16T21:41:20.760Z,4.40
2018-07-16T21:43:48.288Z,4.78
2018-07-16T21:46:15.861Z,4.60
2018-07-16T21:48:43.626Z,4.40
2018-07-16T21:51:11.569Z,4.13
2018-07-16T21:53:39.346Z,4.60
2018-07-16T21:56:06.864Z,4.12
2018-07-16T21:58:34.453Z,4.20
2018-07-16T22:01:02.169Z,3.70
2018-07-16T22:03:29.724Z,4.37
2018-07-16T22:05:58.389Z,4.30
2018-07-16T22:08:25.921Z,4.78
2018-07-16T22:10:53.437Z,3.98
2018-07-16T22:13:21.449Z,3.72
2018-07-16T22:15:48.963Z,4.12
2018-07-16T22:18:16.470Z,4.58
2018-07-16T22:20:44.241Z,3.87
2018-07-16T22:23:11.748Z,3.77
2018-07-16T22:25:39.310Z,3.70
2018-07-16T22:28:06.833Z,3.20
2018-07-16T22:30:34.755Z,4.20
2018-07-16T22:33:02.532Z,3.40
2018-07-16T22:35:30.164Z,4.05
2018-07-16T22:37:57.765Z,3.52
2018-07-16T22:40:32.127Z,4.70
2018-07-16T22:42:59.804Z,4.60
2018-07-16T22:45:27.580Z,4.10
2018-07-16T22:47:55.219Z,3.65
2018-07-16T22:50:23.281Z,4.22
2018-07-16T22:52:51.052Z,4.00
2018-07-16T22:55:18.701Z,3.70
2018-07-16T22:57:46.365Z,3.20
2018-07-16T23:00:14.100Z,3.67
2018-07-16T23:02:41.932Z,3.60
2018-07-16T23:05:09.534Z,3.30
2018-07-16T23:07:37.083Z,3.20
2018-07-16T23:10:04.827Z,3.37
2018-07-16T23:12:32.320Z,2.65
2018-07-16T23:15:00.174Z,3.45
2018-07-16T23:17:27.675Z,3.58
2018-07-16T23:19:55.312Z,3.47
2018-07-16T23:22:22.840Z,4.35
2018-07-16T23:24:50.404Z,4.00
2018-07-16T23:27:17.890Z,3.65
2018-07-16T23:29:45.460Z,3.60
2018-07-16T23:32:12.990Z,3.52
2018-07-16T23:34:40.564Z,3.70
2018-07-16T23:37:08.102Z,3.60
2018-07-16T23:39:35.837Z,3.40
2018-07-16T23:42:03.392Z,3.72
2018-07-16T23:44:30.872Z,3.50
2018-07-16T23:46:58.404Z,3.40
2018-07-16T23:49:25.932Z,3.40
2018-07-16T23:51:53.501Z,3.67
2018-07-16T23:54:20.970Z,4.20
2018-07-16T23:56:48.476Z,4.80
2018-07-16T23:59:16.019Z,4.25
